createdAt,value
2022-11-05T00:00:43.320Z,99.99
2022-11-05T00:01:43.329Z,99.99
2022-11-05T00:02:43.276Z,99.99
2022-11-05T00:03:43.349Z,99.99
2022-11-05T00:04:43.245Z,99.99
2022-11-05T00:05:43.245Z,99.99
2022-11-05T00:06:43.223Z,99.99
2022-11-05T00:07:43.225Z,99.99
2022-11-05T00:08:43.217Z,99.99
2022-11-05T00:09:43.195Z,99.99
2022-11-05T00:10:43.185Z,99.99
2022-11-05T00:11:43.164Z,99.99
2022-11-05T00:12:43.143Z,99.99
2022-11-05T00:13:43.152Z,99.99
2022-11-05T00:14:43.133Z,99.99
2022-11-05T00:15:43.135Z,99.99
2022-11-05T00:16:43.113Z,99.99
2022-11-05T00:17:43.110Z,99.99
2022-11-05T00:18:43.113Z,99.99
2022-11-05T00:19:43.064Z,99.99
2022-11-05T00:20:43.068Z,99.99
2022-11-05T00:21:43.041Z,99.99
2022-11-05T00:22:43.028Z,99.99
2022-11-05T00:23:43.029Z,99.99
2022-11-05T00:24:42.999Z,99.99
2022-11-05T00:25:43.001Z,99.99
2022-11-05T00:26:42.987Z,99.99
2022-11-05T00:27:42.962Z,99.99
2022-11-05T00:28:42.949Z,99.99
2022-11-05T00:29:42.940Z,99.99
2022-11-05T00:30:42.909Z,99.99
2022-11-05T00:31:42.910Z,99.99
2022-11-05T00:32:42.892Z,99.99
2022-11-05T00:33:42.902Z,99.99
2022-11-05T00:34:42.861Z,99.99
2022-11-05T00:35:42.852Z,99.99
2022-11-05T00:36:42.828Z,99.99
2022-11-05T00:37:48.704Z,99.99
2022-11-05T00:38:43.809Z,99.99
2022-11-05T00:39:42.806Z,99.99
2022-11-05T00:40:42.779Z,99.99
2022-11-05T00:41:42.775Z,99.99
2022-11-05T00:42:42.745Z,99.99
2022-11-05T00:43:42.781Z,99.99
2022-11-05T00:44:42.724Z,99.99
2022-11-05T00:45:42.731Z,99.99
2022-11-05T00:46:42.701Z,99.99
2022-11-05T00:47:42.706Z,99.99
2022-11-05T00:48:42.704Z,99.99
2022-11-05T00:49:42.665Z,99.99
2022-11-05T00:50:42.667Z,99.99
2022-11-05T00:51:42.635Z,99.99
2022-11-05T00:52:42.634Z,99.99
2022-11-05T00:53:42.626Z,99.99
2022-11-05T00:54:44.057Z,99.99
2022-11-05T00:55:42.593Z,99.99
2022-11-05T00:56:42.568Z,99.99
2022-11-05T00:57:42.565Z,99.99
2022-11-05T00:58:42.602Z,99.99
2022-11-05T00:59:42.543Z,99.99
2022-11-05T01:00:42.511Z,99.99
2022-11-05T01:01:42.623Z,99.99
2022-11-05T01:02:42.645Z,99.99
2022-11-05T01:03:45.140Z,99.99
2022-11-05T01:04:43.472Z,99.99
2022-11-05T01:05:43.718Z,99.99
2022-11-05T01:06:42.443Z,99.99
2022-11-05T01:07:42.460Z,99.99
2022-11-05T01:08:42.433Z,99.99
2022-11-05T01:09:42.405Z,99.99
2022-11-05T01:10:42.400Z,99.99
2022-11-05T01:11:42.391Z,99.99
2022-11-05T01:12:42.361Z,99.99
2022-11-05T01:13:42.391Z,99.99
2022-11-05T01:14:42.363Z,99.99
2022-11-05T01:15:42.330Z,99.99
2022-11-05T01:16:42.305Z,99.99
2022-11-05T01:17:42.317Z,99.99
2022-11-05T01:18:42.359Z,99.99
2022-11-05T01:19:42.287Z,99.99
2022-11-05T01:20:42.260Z,99.99
2022-11-05T01:21:42.278Z,99.99
2022-11-05T01:22:42.272Z,99.99
2022-11-05T01:23:42.223Z,99.99
2022-11-05T01:24:42.213Z,99.99
2022-11-05T01:25:42.558Z,99.99
2022-11-05T01:26:42.166Z,99.99
2022-11-05T01:27:42.175Z,99.99
2022-11-05T01:28:42.264Z,99.99
2022-11-05T01:29:42.146Z,99.99
2022-11-05T01:30:42.126Z,99.99
2022-11-05T01:31:42.117Z,99.99
2022-11-05T01:32:42.108Z,99.99
2022-11-05T01:33:42.088Z,99.99
2022-11-05T01:34:42.067Z,99.99
2022-11-05T01:35:42.065Z,99.99
2022-11-05T01:36:42.047Z,99.99
2022-11-05T01:37:42.070Z,99.99
2022-11-05T01:38:42.590Z,99.99
2022-11-05T01:39:42.046Z,99.99
2022-11-05T01:40:41.998Z,99.99
2022-11-05T01:41:41.974Z,99.99
2022-11-05T01:42:41.962Z,99.99
2022-11-05T01:43:41.963Z,99.99
2022-11-05T01:44:41.933Z,99.99
2022-11-05T01:45:41.924Z,99.99
2022-11-05T01:46:41.915Z,99.99
2022-11-05T01:47:41.912Z,99.99
2022-11-05T01:48:41.974Z,99.99
2022-11-05T01:49:41.884Z,99.99
2022-11-05T01:50:41.884Z,99.99
2022-11-05T01:51:41.873Z,99.99
2022-11-05T01:52:41.851Z,99.99
2022-11-05T01:53:41.840Z,99.99
2022-11-05T01:54:41.828Z,99.99
2022-11-05T01:55:41.819Z,99.99
2022-11-05T01:56:41.798Z,99.99
2022-11-05T01:57:41.789Z,99.99
2022-11-05T01:58:41.791Z,99.99
2022-11-05T01:59:41.764Z,99.99
2022-11-05T02:00:41.745Z,99.99
2022-11-05T02:01:41.881Z,99.99
2022-11-05T02:02:41.829Z,99.99
2022-11-05T02:03:41.715Z,99.99
2022-11-05T02:04:41.689Z,99.99
2022-11-05T02:05:41.682Z,99.99
2022-11-05T02:06:41.661Z,99.99
2022-11-05T02:07:41.649Z,99.99
2022-11-05T02:08:41.645Z,99.99
2022-11-05T02:09:41.617Z,99.99
2022-11-05T02:10:41.597Z,99.99
2022-11-05T02:11:41.598Z,99.99
2022-11-05T02:12:41.577Z,99.99
2022-11-05T02:13:41.617Z,99.99
2022-11-05T02:14:41.568Z,99.99
2022-11-05T02:15:41.565Z,99.99
2022-11-05T02:16:41.531Z,99.99
2022-11-05T02:17:41.537Z,99.99
2022-11-05T02:18:41.528Z,99.99
2022-11-05T02:19:41.497Z,99.99
2022-11-05T02:20:41.475Z,99.99
2022-11-05T02:21:41.467Z,99.99
2022-11-05T02:22:41.446Z,99.99
2022-11-05T02:23:41.446Z,99.99
2022-11-05T02:24:41.427Z,99.99
2022-11-05T02:25:41.407Z,99.99
2022-11-05T02:26:41.392Z,99.99
2022-11-05T02:27:41.374Z,99.99
2022-11-05T02:28:41.361Z,99.99
2022-11-05T02:29:41.364Z,99.99
2022-11-05T02:30:41.342Z,99.99
2022-11-05T02:31:41.338Z,99.99
2022-11-05T02:32:41.315Z,99.99
2022-11-05T02:33:41.303Z,99.99
2022-11-05T02:34:41.312Z,99.99
2022-11-05T02:35:41.277Z,99.99
2022-11-05T02:36:41.273Z,99.99
2022-11-05T02:37:41.263Z,99.99
2022-11-05T02:38:41.243Z,99.99
2022-11-05T02:39:41.212Z,99.99
2022-11-05T02:40:41.200Z,99.99
2022-11-05T02:41:41.200Z,99.99
2022-11-05T02:42:41.191Z,99.99
2022-11-05T02:44:57.838Z,99.99
2022-11-05T02:45:57.808Z,99.99
2022-11-05T02:46:57.776Z,99.99
2022-11-05T02:47:57.767Z,99.99
2022-11-05T02:48:58.045Z,99.99
2022-11-05T02:49:57.751Z,99.99
2022-11-05T02:50:57.727Z,99.99
2022-11-05T02:51:57.721Z,99.99
2022-11-05T02:52:57.725Z,99.99
2022-11-05T02:53:57.736Z,99.99
2022-11-05T02:54:57.679Z,99.99
2022-11-05T02:55:57.683Z,99.99
2022-11-05T02:56:57.657Z,99.99
2022-11-05T02:57:57.650Z,99.99
2022-11-05T02:58:57.661Z,99.99
2022-11-05T02:59:57.609Z,99.99
2022-11-05T03:00:57.606Z,99.99
2022-11-05T03:01:57.853Z,99.99
2022-11-05T03:02:57.641Z,99.99
2022-11-05T03:03:57.571Z,99.99
2022-11-05T03:04:57.594Z,99.99
2022-11-05T03:05:57.573Z,99.99
2022-11-05T03:06:57.552Z,99.99
2022-11-05T03:07:57.528Z,99.99
2022-11-05T03:08:57.532Z,99.99
2022-11-05T03:09:57.484Z,99.99
2022-11-05T03:10:57.510Z,99.99
2022-11-05T03:11:57.489Z,99.99
2022-11-05T03:12:57.487Z,99.99
2022-11-05T03:13:57.451Z,99.99
2022-11-05T03:14:57.501Z,99.99
2022-11-05T03:15:57.459Z,99.99
2022-11-05T03:16:57.431Z,99.99
2022-11-05T03:17:57.402Z,99.99
2022-11-05T03:18:57.388Z,99.99
2022-11-05T03:19:57.369Z,99.99
2022-11-05T03:20:57.361Z,99.99
2022-11-05T03:21:57.373Z,99.99
2022-11-05T03:22:57.326Z,99.99
2022-11-05T03:23:57.328Z,99.99
2022-11-05T03:24:57.314Z,99.99
2022-11-05T03:25:57.443Z,99.99
2022-11-05T03:26:57.296Z,99.99
2022-11-05T03:27:57.271Z,99.99
2022-11-05T03:28:57.259Z,99.99
2022-11-05T03:29:57.249Z,99.99
2022-11-05T03:30:57.227Z,99.99
2022-11-05T03:31:57.250Z,99.99
2022-11-05T03:32:57.212Z,99.99
2022-11-05T03:33:57.208Z,99.99
2022-11-05T03:34:57.211Z,99.99
2022-11-05T03:35:57.328Z,99.99
2022-11-05T03:36:57.166Z,99.99
2022-11-05T03:37:57.208Z,99.99
2022-11-05T03:38:57.142Z,99.99
2022-11-05T03:39:57.124Z,99.99
2022-11-05T03:40:57.235Z,99.99
2022-11-05T03:41:57.095Z,99.99
2022-11-05T03:42:57.091Z,99.99
2022-11-05T03:43:57.062Z,99.99
2022-11-05T03:44:57.080Z,99.99
2022-11-05T03:45:57.069Z,99.99
2022-11-05T03:46:57.033Z,99.99
2022-11-05T03:47:57.024Z,99.99
2022-11-05T03:48:57.164Z,99.99
2022-11-05T03:49:56.991Z,99.99
2022-11-05T03:50:56.973Z,99.99
2022-11-05T03:51:56.957Z,99.99
2022-11-05T03:52:56.949Z,99.99
2022-11-05T03:53:56.946Z,99.99
2022-11-05T03:54:56.922Z,99.99
2022-11-05T03:55:56.922Z,99.99
2022-11-05T03:56:56.900Z,99.99
2022-11-05T03:57:56.911Z,99.99
2022-11-05T03:58:59.068Z,99.99
2022-11-05T03:59:56.851Z,99.99
2022-11-05T04:00:56.853Z,99.99
2022-11-05T04:01:57.043Z,99.99
2022-11-05T04:02:56.877Z,99.99
2022-11-05T04:03:56.810Z,99.99
2022-11-05T04:04:56.797Z,99.99
2022-11-05T04:05:56.792Z,99.99
2022-11-05T04:06:56.780Z,99.99
2022-11-05T04:07:56.816Z,99.99
2022-11-05T04:08:56.778Z,99.99
2022-11-05T04:09:56.744Z,99.99
2022-11-05T04:10:56.727Z,99.99
2022-11-05T04:11:57.021Z,99.99
2022-11-05T04:12:56.721Z,99.99
2022-11-05T04:13:56.707Z,99.99
2022-11-05T04:14:56.668Z,99.99
2022-11-05T04:15:56.666Z,99.99
2022-11-05T04:16:56.696Z,99.99
2022-11-05T04:17:56.617Z,99.99
2022-11-05T04:18:56.627Z,99.99
2022-11-05T04:19:56.585Z,99.99
2022-11-05T04:20:56.591Z,99.99
2022-11-05T04:21:56.596Z,99.99
2022-11-05T04:22:56.565Z,99.99
2022-11-05T04:23:56.571Z,99.99
2022-11-05T04:24:56.532Z,99.99
2022-11-05T04:25:56.534Z,99.99
2022-11-05T04:26:56.514Z,99.99
2022-11-05T04:27:56.502Z,99.99
2022-11-05T04:28:56.505Z,99.99
2022-11-05T04:29:56.454Z,99.99
2022-11-05T04:30:56.455Z,99.99
2022-11-05T04:31:56.454Z,99.99
2022-11-05T04:32:56.459Z,99.99
2022-11-05T04:33:56.442Z,99.99
2022-11-05T04:34:56.448Z,99.99
2022-11-05T04:35:56.405Z,99.99
2022-11-05T04:36:56.386Z,99.99
2022-11-05T04:37:56.389Z,99.99
2022-11-05T04:38:56.367Z,99.99
2022-11-05T04:39:56.340Z,99.99
2022-11-05T04:40:56.337Z,99.99
2022-11-05T04:41:56.309Z,99.99
2022-11-05T04:42:56.299Z,99.99
2022-11-05T04:43:56.290Z,99.99
2022-11-05T04:44:56.288Z,99.99
2022-11-05T04:45:56.280Z,99.99
2022-11-05T04:46:56.250Z,99.99
2022-11-05T04:47:56.240Z,99.99
2022-11-05T04:48:56.225Z,99.99
2022-11-05T04:49:56.229Z,99.99
2022-11-05T04:50:56.217Z,99.99
2022-11-05T04:51:56.208Z,99.99
2022-11-05T04:52:56.240Z,99.99
2022-11-05T04:53:56.182Z,99.99
2022-11-05T04:54:56.173Z,99.99
2022-11-05T04:55:56.168Z,99.99
2022-11-05T04:56:56.138Z,99.99
2022-11-05T04:57:56.120Z,99.99
2022-11-05T04:58:56.123Z,99.99
2022-11-05T04:59:56.079Z,99.99
2022-11-05T05:00:56.091Z,99.99
2022-11-05T05:01:56.132Z,99.99
2022-11-05T05:02:56.062Z,99.99
2022-11-05T05:03:56.025Z,99.99
2022-11-05T05:04:56.028Z,99.99
2022-11-05T05:05:59.477Z,99.99
2022-11-05T05:06:57.003Z,99.99
2022-11-05T05:07:56.018Z,99.99
2022-11-05T05:08:55.973Z,99.99
2022-11-05T05:09:55.964Z,99.99
2022-11-05T05:10:55.953Z,99.99
2022-11-05T05:11:55.947Z,99.99
2022-11-05T05:12:55.917Z,99.99
2022-11-05T05:13:55.933Z,99.99
2022-11-05T05:14:55.899Z,99.99
2022-11-05T05:15:55.906Z,99.99
2022-11-05T05:16:55.876Z,99.99
2022-11-05T05:17:55.864Z,99.99
2022-11-05T05:18:55.862Z,99.99
2022-11-05T05:19:55.870Z,99.99
2022-11-05T05:20:55.800Z,99.99
2022-11-05T05:21:55.814Z,99.99
2022-11-05T05:22:55.799Z,99.99
2022-11-05T05:23:55.782Z,99.99
2022-11-05T05:24:55.787Z,99.99
2022-11-05T05:25:55.944Z,99.99
2022-11-05T05:26:56.076Z,99.99
2022-11-05T05:27:55.739Z,99.99
2022-11-05T05:28:55.726Z,99.99
2022-11-05T05:29:55.733Z,99.99
2022-11-05T05:30:58.701Z,99.99
2022-11-05T05:31:55.735Z,99.99
2022-11-05T05:32:55.660Z,99.99
2022-11-05T05:33:55.653Z,99.99
2022-11-05T05:34:55.656Z,99.99
2022-11-05T05:35:56.596Z,99.99
2022-11-05T05:36:55.662Z,99.99
2022-11-05T05:37:55.603Z,99.99
2022-11-05T05:38:55.593Z,99.99
2022-11-05T05:39:55.613Z,99.99
2022-11-05T05:40:55.566Z,99.99
2022-11-05T05:41:55.571Z,99.99
2022-11-05T05:42:55.578Z,99.99
2022-11-05T05:43:55.530Z,99.99
2022-11-05T05:44:55.556Z,99.99
2022-11-05T05:45:55.826Z,99.99
2022-11-05T05:46:55.480Z,99.99
2022-11-05T05:47:55.477Z,99.99
2022-11-05T05:48:55.475Z,99.99
2022-11-05T05:49:55.465Z,99.99
2022-11-05T05:50:55.461Z,99.99
2022-11-05T05:51:55.427Z,99.99
2022-11-05T05:52:55.413Z,99.99
2022-11-05T05:53:55.391Z,99.99
2022-11-05T05:54:55.448Z,99.99
2022-11-05T05:55:55.788Z,99.99
2022-11-05T05:56:55.365Z,99.99
2022-11-05T05:57:55.371Z,99.99
2022-11-05T05:58:55.337Z,99.99
2022-11-05T05:59:55.322Z,99.99
2022-11-05T06:00:55.316Z,99.99
2022-11-05T06:01:55.509Z,99.99
2022-11-05T06:02:55.357Z,99.99
2022-11-05T06:03:55.279Z,99.99
2022-11-05T06:04:55.296Z,99.99
2022-11-05T06:05:56.216Z,99.99
2022-11-05T06:06:55.349Z,99.99
2022-11-05T06:07:55.232Z,99.99
2022-11-05T06:08:55.216Z,99.99
2022-11-05T06:09:55.280Z,99.99
2022-11-05T06:10:55.343Z,99.99
2022-11-05T06:11:55.169Z,99.99
2022-11-05T06:12:55.163Z,99.99
2022-11-05T06:13:55.148Z,99.99
2022-11-05T06:14:55.159Z,99.99
2022-11-05T06:15:55.323Z,99.99
2022-11-05T06:16:55.117Z,99.99
2022-11-05T06:17:55.133Z,99.99
2022-11-05T06:18:55.105Z,99.99
2022-11-05T06:19:55.120Z,99.99
2022-11-05T06:20:55.109Z,99.99
2022-11-05T06:21:55.053Z,99.99
2022-11-05T06:22:55.093Z,99.99
2022-11-05T06:23:55.028Z,99.99
2022-11-05T06:24:55.043Z,99.99
2022-11-05T06:25:55.007Z,99.99
2022-11-05T06:26:55.011Z,99.99
2022-11-05T06:27:55.010Z,99.99
2022-11-05T06:28:54.991Z,99.99
2022-11-05T06:29:54.981Z,99.99
2022-11-05T06:30:54.982Z,99.99
2022-11-05T06:31:54.930Z,99.99
2022-11-05T06:32:54.909Z,99.99
2022-11-05T06:33:54.906Z,99.99
2022-11-05T06:34:54.927Z,99.99
2022-11-05T06:35:54.907Z,99.99
2022-11-05T06:36:54.863Z,99.99
2022-11-05T06:37:54.872Z,99.99
2022-11-05T06:38:54.855Z,99.99
2022-11-05T06:39:54.870Z,99.99
2022-11-05T06:40:54.814Z,99.99
2022-11-05T06:42:17.234Z,99.99
2022-11-05T06:42:55.805Z,99.99
2022-11-05T06:43:54.797Z,99.99
2022-11-05T06:44:54.779Z,99.99
2022-11-05T06:45:54.776Z,99.99
2022-11-05T06:46:54.742Z,99.99
2022-11-05T06:47:54.721Z,99.99
2022-11-05T06:48:54.713Z,99.99
2022-11-05T06:49:54.708Z,99.99
2022-11-05T06:50:54.676Z,99.99
2022-11-05T06:51:54.693Z,99.99
2022-11-05T06:52:54.681Z,99.99
2022-11-05T06:53:54.676Z,99.99
2022-11-05T06:54:54.651Z,99.99
2022-11-05T06:55:54.651Z,99.99
2022-11-05T06:56:54.653Z,99.99
2022-11-05T06:57:54.616Z,99.99
2022-11-05T06:58:54.580Z,99.99
2022-11-05T06:59:59.954Z,99.99
2022-11-05T07:00:55.610Z,99.99
2022-11-05T07:01:54.619Z,99.99
2022-11-05T07:02:54.533Z,99.99
2022-11-05T07:03:54.536Z,99.99
2022-11-05T07:04:54.507Z,99.99
2022-11-05T07:05:54.505Z,99.99
2022-11-05T07:06:54.479Z,99.99
2022-11-05T07:07:54.457Z,99.99
2022-11-05T07:08:54.478Z,99.99
2022-11-05T07:09:54.468Z,99.99
2022-11-05T07:10:54.494Z,99.99
2022-11-05T07:11:54.417Z,99.99
2022-11-05T07:12:54.416Z,99.99
2022-11-05T07:13:54.480Z,99.99
2022-11-05T07:14:54.406Z,99.99
2022-11-05T07:15:54.357Z,99.99
2022-11-05T07:16:54.418Z,99.99
2022-11-05T07:17:54.332Z,99.99
2022-11-05T07:18:54.346Z,99.99
2022-11-05T07:19:54.357Z,99.99
2022-11-05T07:20:54.306Z,99.99
2022-11-05T07:21:54.310Z,99.99
2022-11-05T07:22:54.306Z,99.99
2022-11-05T07:23:54.270Z,99.99
2022-11-05T07:24:54.283Z,99.99
2022-11-05T07:25:54.250Z,99.99
2022-11-05T07:26:54.256Z,99.99
2022-11-05T07:27:54.224Z,99.99
2022-11-05T07:28:54.211Z,99.99
2022-11-05T07:29:54.186Z,99.99
2022-11-05T07:30:54.217Z,99.99
2022-11-05T07:31:54.177Z,99.99
2022-11-05T07:32:54.156Z,99.99
2022-11-05T07:33:54.141Z,99.99
2022-11-05T07:34:54.155Z,99.99
2022-11-05T07:35:54.140Z,99.99
2022-11-05T07:36:54.140Z,99.99
2022-11-05T07:37:54.105Z,99.99
2022-11-05T07:38:59.861Z,99.99
2022-11-05T07:39:55.214Z,99.99
2022-11-05T07:40:54.047Z,99.99
2022-11-05T07:41:54.080Z,99.99
2022-11-05T07:42:54.085Z,99.99
2022-11-05T07:43:54.007Z,99.99
2022-11-05T07:44:53.994Z,99.99
2022-11-05T07:45:53.979Z,99.99
2022-11-05T07:46:53.960Z,99.99
2022-11-05T07:47:53.973Z,99.99
2022-11-05T07:48:53.978Z,99.99
2022-11-05T07:49:53.977Z,99.99
2022-11-05T07:50:54.269Z,99.99
2022-11-05T07:51:54.655Z,99.99
2022-11-05T07:52:53.898Z,99.99
2022-11-05T07:53:53.922Z,99.99
2022-11-05T07:54:53.863Z,99.99
2022-11-05T07:55:53.858Z,99.99
2022-11-05T07:56:53.902Z,99.99
2022-11-05T07:57:53.816Z,99.99
2022-11-05T07:58:53.814Z,99.99
2022-11-05T07:59:53.835Z,99.99
2022-11-05T08:00:53.882Z,99.99
2022-11-05T08:01:54.037Z,99.99
2022-11-05T08:02:53.985Z,99.99
2022-11-05T08:03:53.791Z,99.99
2022-11-05T08:04:53.753Z,99.99
2022-11-05T08:05:53.740Z,99.99
2022-11-05T08:06:53.714Z,99.99
2022-11-05T08:07:53.708Z,99.99
2022-11-05T08:08:53.703Z,99.99
2022-11-05T08:09:53.673Z,99.99
2022-11-05T08:10:53.674Z,99.99
2022-11-05T08:11:57.361Z,99.99
2022-11-05T08:12:54.710Z,99.99
2022-11-05T08:13:53.616Z,99.99
2022-11-05T08:14:53.613Z,99.99
2022-11-05T08:15:53.925Z,99.99
2022-11-05T08:16:53.604Z,99.99
2022-11-05T08:17:53.902Z,99.99
2022-11-05T08:18:53.630Z,99.99
2022-11-05T08:19:53.555Z,99.99
2022-11-05T08:20:53.546Z,99.99
2022-11-05T08:21:53.512Z,99.99
2022-11-05T08:22:53.521Z,99.99
2022-11-05T08:23:53.528Z,99.99
2022-11-05T08:24:53.501Z,99.99
2022-11-05T08:25:53.597Z,99.99
2022-11-05T08:26:53.463Z,99.99
2022-11-05T08:27:53.470Z,99.99
2022-11-05T08:28:53.449Z,99.99
2022-11-05T08:29:53.610Z,99.99
2022-11-05T08:30:53.396Z,99.99
2022-11-05T08:31:53.385Z,99.99
2022-11-05T08:32:53.391Z,99.99
2022-11-05T08:33:56.061Z,99.99
2022-11-05T08:34:54.379Z,99.99
2022-11-05T08:35:53.380Z,99.99
2022-11-05T08:36:53.333Z,99.99
2022-11-05T08:37:53.317Z,99.99
2022-11-05T08:38:53.293Z,99.99
2022-11-05T08:39:53.289Z,99.99
2022-11-05T08:40:53.278Z,99.99
2022-11-05T08:41:53.317Z,99.99
2022-11-05T08:42:53.254Z,99.99
2022-11-05T08:43:53.241Z,99.99
2022-11-05T08:45:00.524Z,99.99
2022-11-05T08:45:53.209Z,99.99
2022-11-05T08:46:53.193Z,99.99
2022-11-05T08:47:53.174Z,99.99
2022-11-05T08:48:53.173Z,99.99
2022-11-05T08:49:53.150Z,99.99
2022-11-05T08:50:53.136Z,99.99
2022-11-05T08:51:53.131Z,99.99
2022-11-05T08:52:53.142Z,99.99
2022-11-05T08:53:53.094Z,99.99
2022-11-05T08:54:53.093Z,99.99
2022-11-05T08:55:53.130Z,99.99
2022-11-05T08:56:53.060Z,99.99
2022-11-05T08:57:53.049Z,99.99
2022-11-05T08:58:53.540Z,99.99
2022-11-05T08:59:53.028Z,99.99
2022-11-05T09:00:53.062Z,99.83
2022-11-05T09:01:53.163Z,99.32
2022-11-05T09:02:52.986Z,99.21
2022-11-05T09:03:52.970Z,99.42
2022-11-05T09:04:52.958Z,99.42
2022-11-05T09:05:52.963Z,99.32
2022-11-05T09:06:53.176Z,99.52
2022-11-05T09:07:57.911Z,99.63
2022-11-05T09:08:53.902Z,99.11
2022-11-05T09:09:52.900Z,98.50
2022-11-05T09:10:52.892Z,98.29
2022-11-05T09:12:53.847Z,97.99
2022-11-05T09:13:52.845Z,98.19
2022-11-05T09:14:52.828Z,97.27
2022-11-05T09:15:52.855Z,97.83
2022-11-05T09:16:52.886Z,97.02
2022-11-05T09:17:54.016Z,97.02
2022-11-05T09:18:52.798Z,96.70
2022-11-05T09:19:52.748Z,97.02
2022-11-05T09:20:52.754Z,97.02
2022-11-05T09:21:52.724Z,97.12
2022-11-05T09:22:52.736Z,97.22
2022-11-05T09:23:52.713Z,96.91
2022-11-05T09:24:52.775Z,96.91
2022-11-05T09:25:52.694Z,96.87
2022-11-05T09:26:52.655Z,97.07
2022-11-05T09:27:52.653Z,97.17
2022-11-05T09:28:52.635Z,96.97
2022-11-05T09:29:52.656Z,95.64
2022-11-05T09:30:52.622Z,95.53
2022-11-05T09:31:52.633Z,95.53
2022-11-05T09:32:52.614Z,96.04
2022-11-05T09:33:52.593Z,96.20
2022-11-05T09:34:52.553Z,95.69
2022-11-05T09:35:52.573Z,95.69
2022-11-05T09:36:52.534Z,95.07
2022-11-05T09:37:56.743Z,95.18
2022-11-05T09:38:53.576Z,94.36
2022-11-05T09:39:52.489Z,94.67
2022-11-05T09:40:52.490Z,94.67
2022-11-05T09:41:52.460Z,94.56
2022-11-05T09:42:52.447Z,93.85
2022-11-05T09:43:52.432Z,94.15
2022-11-05T09:44:52.426Z,94.67
2022-11-05T09:45:52.408Z,94.46
2022-11-05T09:46:52.379Z,94.01
2022-11-05T09:47:52.384Z,93.70
2022-11-05T09:48:52.362Z,93.49
2022-11-05T09:49:52.358Z,93.19
2022-11-05T09:50:52.346Z,93.49
2022-11-05T09:51:52.330Z,93.19
2022-11-05T09:52:52.316Z,93.39
2022-11-05T09:53:52.301Z,93.49
2022-11-05T09:54:52.309Z,92.98
2022-11-05T09:55:52.299Z,92.57
2022-11-05T09:56:52.267Z,92.83
2022-11-05T09:57:52.268Z,93.35
2022-11-05T09:58:52.236Z,93.04
2022-11-05T09:59:52.228Z,91.91
2022-11-05T10:00:52.316Z,91.71
2022-11-05T10:01:52.353Z,91.71
2022-11-05T10:02:52.187Z,91.30
2022-11-05T10:03:52.165Z,91.40
2022-11-05T10:04:52.203Z,91.30
2022-11-05T10:05:52.281Z,90.64
2022-11-05T10:06:52.186Z,90.84
2022-11-05T10:07:52.143Z,90.03
2022-11-05T10:08:52.110Z,90.13
2022-11-05T10:09:52.088Z,90.44
2022-11-05T10:10:52.123Z,89.83
2022-11-05T10:11:52.184Z,90.23
2022-11-05T10:12:52.051Z,90.13
2022-11-05T10:13:52.059Z,89.51
2022-11-05T10:14:52.045Z,89.51
2022-11-05T10:15:52.050Z,89.62
2022-11-05T10:16:52.013Z,89.17
2022-11-05T10:17:51.993Z,88.35
2022-11-05T10:18:51.971Z,88.86
2022-11-05T10:19:51.981Z,89.17
2022-11-05T10:20:52.016Z,87.32
2022-11-05T10:22:06.050Z,87.22
2022-11-05T10:22:52.922Z,86.77
2022-11-05T10:23:51.916Z,86.57
2022-11-05T10:24:51.911Z,86.46
2022-11-05T10:25:51.891Z,86.46
2022-11-05T10:26:51.888Z,86.67
2022-11-05T10:27:51.881Z,86.16
2022-11-05T10:28:51.851Z,85.75
2022-11-05T10:29:51.838Z,85.14
2022-11-05T10:30:51.830Z,84.11
2022-11-05T10:31:51.807Z,84.52
2022-11-05T10:32:51.800Z,84.72
2022-11-05T10:33:51.800Z,84.93
2022-11-05T10:34:51.868Z,84.93
2022-11-05T10:35:51.778Z,85.10
2022-11-05T10:36:51.762Z,84.99
2022-11-05T10:37:51.741Z,84.89
2022-11-05T10:38:51.718Z,84.38
2022-11-05T10:39:51.725Z,84.58
2022-11-05T10:40:51.712Z,84.38
2022-11-05T10:41:51.698Z,84.48
2022-11-05T10:42:52.412Z,84.28
2022-11-05T10:43:51.655Z,84.28
2022-11-05T10:44:51.644Z,83.01
2022-11-05T10:45:51.649Z,82.81
2022-11-05T10:46:51.618Z,83.22
2022-11-05T10:47:51.623Z,82.91
2022-11-05T10:48:51.667Z,82.91
2022-11-05T10:49:51.575Z,83.11
2022-11-05T10:50:51.566Z,83.42
2022-11-05T10:51:51.556Z,83.52
2022-11-05T10:52:51.548Z,83.32
2022-11-05T10:53:51.540Z,82.87
2022-11-05T10:54:51.515Z,83.07
2022-11-05T10:55:51.516Z,82.67
2022-11-05T10:56:51.511Z,81.74
2022-11-05T10:57:51.491Z,81.74
2022-11-05T10:58:51.499Z,81.95
2022-11-05T10:59:51.469Z,81.85
2022-11-05T11:00:51.528Z,82.05
2022-11-05T11:01:51.523Z,81.44
2022-11-05T11:02:51.413Z,81.44
2022-11-05T11:03:51.420Z,81.20
2022-11-05T11:04:51.394Z,80.99
2022-11-05T11:05:51.457Z,80.42
2022-11-05T11:06:51.387Z,79.97
2022-11-05T11:07:51.344Z,81.10
2022-11-05T11:08:51.353Z,80.99
2022-11-05T11:09:51.333Z,80.58
2022-11-05T11:10:51.359Z,80.07
2022-11-05T11:11:51.297Z,80.18
2022-11-05T11:12:51.284Z,80.38
2022-11-05T11:13:51.267Z,80.28
2022-11-05T11:14:51.265Z,78.44
2022-11-05T11:15:51.273Z,78.85
2022-11-05T11:16:51.275Z,78.64
2022-11-05T11:17:51.259Z,78.81
2022-11-05T11:18:51.201Z,79.02
2022-11-05T11:19:51.231Z,78.81
2022-11-05T11:20:51.192Z,78.61
2022-11-05T11:21:51.192Z,78.91
2022-11-05T11:22:51.901Z,77.89
2022-11-05T11:23:51.189Z,77.79
2022-11-05T11:24:51.142Z,77.28
2022-11-05T11:25:52.100Z,76.67
2022-11-05T11:26:51.123Z,76.46
2022-11-05T11:27:51.092Z,76.36
2022-11-05T11:28:51.146Z,76.67
2022-11-05T11:29:51.118Z,76.46
2022-11-05T11:30:51.105Z,74.83
2022-11-05T11:31:51.155Z,75.44
2022-11-05T11:32:51.089Z,75.51
2022-11-05T11:33:51.019Z,75.92
2022-11-05T11:34:51.027Z,76.22
2022-11-05T11:35:51.014Z,76.53
2022-11-05T11:36:51.025Z,76.12
2022-11-05T11:37:51.661Z,76.12
2022-11-05T11:38:50.959Z,75.82
2022-11-05T11:39:51.645Z,75.31
2022-11-05T11:40:50.950Z,75.82
2022-11-05T11:41:51.158Z,75.20
2022-11-05T11:42:51.040Z,75.10
2022-11-05T11:43:50.894Z,75.65
2022-11-05T11:44:50.878Z,76.16
2022-11-05T11:45:50.866Z,76.46
2022-11-05T11:46:50.842Z,76.46
2022-11-05T11:47:50.949Z,76.16
2022-11-05T11:48:50.853Z,76.46
2022-11-05T11:49:51.168Z,76.46
2022-11-05T11:50:50.804Z,76.06
2022-11-05T11:51:50.785Z,75.95
2022-11-05T11:52:50.787Z,76.06
2022-11-05T11:53:50.771Z,75.44
2022-11-05T11:54:50.756Z,75.65
2022-11-05T11:55:51.081Z,75.24
2022-11-05T11:56:50.742Z,75.24
2022-11-05T11:57:50.714Z,75.44
2022-11-05T11:58:50.737Z,74.93
2022-11-05T12:00:51.665Z,75.00
2022-11-05T12:01:50.854Z,75.10
2022-11-05T12:02:50.719Z,75.20
2022-11-05T12:03:50.636Z,74.96
2022-11-05T12:04:50.632Z,75.16
2022-11-05T12:05:50.857Z,74.35
2022-11-05T12:06:50.615Z,73.84
2022-11-05T12:07:50.604Z,73.67
2022-11-05T12:08:58.146Z,74.29
2022-11-05T12:09:51.565Z,74.38
2022-11-05T12:10:50.550Z,74.69
2022-11-05T12:11:50.572Z,74.49
2022-11-05T12:12:50.754Z,73.77
2022-11-05T12:13:51.493Z,73.47
2022-11-05T12:14:50.519Z,73.47
2022-11-05T12:15:50.559Z,73.67
2022-11-05T12:16:50.471Z,72.96
2022-11-05T12:17:50.524Z,72.96
2022-11-05T12:18:50.457Z,72.92
2022-11-05T12:19:50.456Z,73.54
2022-11-05T12:20:55.344Z,72.41
2022-11-05T12:21:53.371Z,72.72
2022-11-05T12:22:50.459Z,72.62
2022-11-05T12:23:50.418Z,72.92
2022-11-05T12:24:50.402Z,73.33
2022-11-05T12:25:50.379Z,73.43
2022-11-05T12:26:50.381Z,73.23
2022-11-05T12:27:50.358Z,73.57
2022-11-05T12:29:16.628Z,73.77
2022-11-05T12:29:51.298Z,73.94
2022-11-05T12:30:50.339Z,74.18
2022-11-05T12:31:50.317Z,74.45
2022-11-05T12:32:50.374Z,74.38
2022-11-05T12:33:50.258Z,74.49
2022-11-05T12:34:50.338Z,74.66
2022-11-05T12:35:54.942Z,74.76
2022-11-05T12:36:51.222Z,74.49
2022-11-05T12:37:50.210Z,74.59
2022-11-05T12:38:50.188Z,74.69
2022-11-05T12:39:50.170Z,74.69
2022-11-05T12:40:50.179Z,74.69
2022-11-05T12:41:50.147Z,74.90
2022-11-05T12:42:50.175Z,75.10
2022-11-05T12:43:51.147Z,74.90
2022-11-05T12:44:50.115Z,74.66
2022-11-05T12:45:50.166Z,74.55
2022-11-05T12:46:50.817Z,74.45
2022-11-05T12:47:50.186Z,74.25
2022-11-05T12:48:50.205Z,74.15
2022-11-05T12:49:50.059Z,74.45
2022-11-05T12:50:50.056Z,74.69
2022-11-05T12:51:50.044Z,75.20
2022-11-05T12:52:50.023Z,75.61
2022-11-05T12:53:50.017Z,75.41
2022-11-05T12:54:49.990Z,75.10
2022-11-05T12:55:49.981Z,75.44